sensor_id;sensor_type;location;lat;lon;timestamp;P1;P2;P0
82667;PMS5003;72691;51.374;-0.176;2024-01-30T00:00:47;32;30;
82667;PMS5003;72691;51.374;-0.176;2024-01-30T00:03:13;29;28;
82667;PMS5003;72691;51.374;-0.176;2024-01-30T00:05:39;32;31;
82667;PMS5003;72691;51.374;-0.176;2024-01-30T00:08:04;27;27;
82667;PMS5003;72691;51.374;-0.176;2024-01-30T00:10:30;37;34;
82667;PMS5003;72691;51.374;-0.176;2024-01-30T00:12:56;26;26;
82667;PMS5003;72691;51.374;-0.176;2024-01-30T00:15:21;30;30;
82667;PMS5003;72691;51.374;-0.176;2024-01-30T00:17:47;31;30;
82667;PMS5003;72691;51.374;-0.176;2024-01-30T00:20:12;29;27;
82667;PMS5003;72691;51.374;-0.176;2024-01-30T00:22:37;29;28;
82667;PMS5003;72691;51.374;-0.176;2024-01-30T00:25:02;26;25;
82667;PMS5003;72691;51.374;-0.176;2024-01-30T00:27:28;30;29;
82667;PMS5003;72691;51.374;-0.176;2024-01-30T00:29:53;25;25;
82667;PMS5003;72691;51.374;-0.176;2024-01-30T00:32:18;28;25;
82667;PMS5003;72691;51.374;-0.176;2024-01-30T00:34:44;26;22;
82667;PMS5003;72691;51.374;-0.176;2024-01-30T00:37:09;23;23;
82667;PMS5003;72691;51.374;-0.176;2024-01-30T00:39:35;22;20;
82667;PMS5003;72691;51.374;-0.176;2024-01-30T00:42:00;20;19;
82667;PMS5003;72691;51.374;-0.176;2024-01-30T00:44:26;24;22;
82667;PMS5003;72691;51.374;-0.176;2024-01-30T00:46:50;18;18;
82667;PMS5003;72691;51.374;-0.176;2024-01-30T00:49:16;15;15;
82667;PMS5003;72691;51.374;-0.176;2024-01-30T00:51:41;14;13;
82667;PMS5003;72691;51.374;-0.176;2024-01-30T00:54:07;14;13;
82667;PMS5003;72691;51.374;-0.176;2024-01-30T00:56:32;14;14;
82667;PMS5003;72691;51.374;-0.176;2024-01-30T00:58:58;15;14;
82667;PMS5003;72691;51.374;-0.176;2024-01-30T01:01:23;11;10;
82667;PMS5003;72691;51.374;-0.176;2024-01-30T01:03:48;9;9;
82667;PMS5003;72691;51.374;-0.176;2024-01-30T01:06:14;6;6;
82667;PMS5003;72691;51.374;-0.176;2024-01-30T01:08:39;4;4;
82667;PMS5003;72691;51.374;-0.176;2024-01-30T01:11:05;6;5;
82667;PMS5003;72691;51.374;-0.176;2024-01-30T01:13:30;6;5;
82667;PMS5003;72691;51.374;-0.176;2024-01-30T01:15:55;7;7;
82667;PMS5003;72691;51.374;-0.176;2024-01-30T01:18:21;5;5;
82667;PMS5003;72691;51.374;-0.176;2024-01-30T01:20:46;5;4;
82667;PMS5003;72691;51.374;-0.176;2024-01-30T01:23:12;3;3;
82667;PMS5003;72691;51.374;-0.176;2024-01-30T01:25:37;4;4;
82667;PMS5003;72691;51.374;-0.176;2024-01-30T01:28:03;5;5;
82667;PMS5003;72691;51.374;-0.176;2024-01-30T01:30:28;5;4;
82667;PMS5003;72691;51.374;-0.176;2024-01-30T01:32:53;4;4;
82667;PMS5003;72691;51.374;-0.176;2024-01-30T01:35:19;5;5;
82667;PMS5003;72691;51.374;-0.176;2024-01-30T01:37:44;4;4;
82667;PMS5003;72691;51.374;-0.176;2024-01-30T01:40:10;5;4;
82667;PMS5003;72691;51.374;-0.176;2024-01-30T01:42:35;3;3;
82667;PMS5003;72691;51.374;-0.176;2024-01-30T01:45:00;2;2;
82667;PMS5003;72691;51.374;-0.176;2024-01-30T01:47:26;3;3;
82667;PMS5003;72691;51.374;-0.176;2024-01-30T01:49:51;1;1;
82667;PMS5003;72691;51.374;-0.176;2024-01-30T01:52:17;2;2;
82667;PMS5003;72691;51.374;-0.176;2024-01-30T01:54:42;1;1;
82667;PMS5003;72691;51.374;-0.176;2024-01-30T01:57:08;2;2;
82667;PMS5003;72691;51.374;-0.176;2024-01-30T01:59:33;1;1;
82667;PMS5003;72691;51.374;-0.176;2024-01-30T02:01:58;2;2;
82667;PMS5003;72691;51.374;-0.176;2024-01-30T02:04:24;1;1;
82667;PMS5003;72691;51.374;-0.176;2024-01-30T02:06:49;1;1;
82667;PMS5003;72691;51.374;-0.176;2024-01-30T02:09:15;2;2;
82667;PMS5003;72691;51.374;-0.176;2024-01-30T02:11:40;1;1;
82667;PMS5003;72691;51.374;-0.176;2024-01-30T02:14:06;1;1;
82667;PMS5003;72691;51.374;-0.176;2024-01-30T02:16:31;1;1;
82667;PMS5003;72691;51.374;-0.176;2024-01-30T02:19:01;1;1;
82667;PMS5003;72691;51.374;-0.176;2024-01-30T02:21:22;1;1;
82667;PMS5003;72691;51.374;-0.176;2024-01-30T02:23:47;1;1;
82667;PMS5003;72691;51.374;-0.176;2024-01-30T02:26:13;2;1;
82667;PMS5003;72691;51.374;-0.176;2024-01-30T02:28:38;1;1;
82667;PMS5003;72691;51.374;-0.176;2024-01-30T02:31:04;1;1;
82667;PMS5003;72691;51.374;-0.176;2024-01-30T02:33:29;2;1;
82667;PMS5003;72691;51.374;-0.176;2024-01-30T02:35:54;1;0;
82667;PMS5003;72691;51.374;-0.176;2024-01-30T02:38:20;1;1;
82667;PMS5003;72691;51.374;-0.176;2024-01-30T02:40:45;0;0;
82667;PMS5003;72691;51.374;-0.176;2024-01-30T02:43:11;1;1;
82667;PMS5003;72691;51.374;-0.176;2024-01-30T02:45:36;1;1;
82667;PMS5003;72691;51.374;-0.176;2024-01-30T02:48:01;0;0;
82667;PMS5003;72691;51.374;-0.176;2024-01-30T02:50:27;2;1;
82667;PMS5003;72691;51.374;-0.176;2024-01-30T02:52:52;1;0;
82667;PMS5003;72691;51.374;-0.176;2024-01-30T02:55:18;0;0;
82667;PMS5003;72691;51.374;-0.176;2024-01-30T02:57:43;0;0;
82667;PMS5003;72691;51.374;-0.176;2024-01-30T03:00:09;1;1;
82667;PMS5003;72691;51.374;-0.176;2024-01-30T03:02:34;2;2;
82667;PMS5003;72691;51.374;-0.176;2024-01-30T03:04:59;1;1;
82667;PMS5003;72691;51.374;-0.176;2024-01-30T03:07:25;1;1;
82667;PMS5003;72691;51.374;-0.176;2024-01-30T03:09:50;1;1;
82667;PMS5003;72691;51.374;-0.176;2024-01-30T03:12:15;1;1;
82667;PMS5003;72691;51.374;-0.176;2024-01-30T03:14:40;0;0;
82667;PMS5003;72691;51.374;-0.176;2024-01-30T03:17:06;1;1;
82667;PMS5003;72691;51.374;-0.176;2024-01-30T03:19:31;1;0;
82667;PMS5003;72691;51.374;-0.176;2024-01-30T03:21:57;0;0;
82667;PMS5003;72691;51.374;-0.176;2024-01-30T03:24:22;2;2;
82667;PMS5003;72691;51.374;-0.176;2024-01-30T03:26:47;1;1;
82667;PMS5003;72691;51.374;-0.176;2024-01-30T03:29:13;2;1;
82667;PMS5003;72691;51.374;-0.176;2024-01-30T03:31:38;1;1;
82667;PMS5003;72691;51.374;-0.176;2024-01-30T03:34:04;0;0;
82667;PMS5003;72691;51.374;-0.176;2024-01-30T03:36:29;0;0;
82667;PMS5003;72691;51.374;-0.176;2024-01-30T03:38:55;1;1;
82667;PMS5003;72691;51.374;-0.176;2024-01-30T03:41:20;0;0;
82667;PMS5003;72691;51.374;-0.176;2024-01-30T03:43:46;1;1;
82667;PMS5003;72691;51.374;-0.176;2024-01-30T03:46:11;0;0;
82667;PMS5003;72691;51.374;-0.176;2024-01-30T03:48:36;1;1;
82667;PMS5003;72691;51.374;-0.176;2024-01-30T03:51:02;0;0;
82667;PMS5003;72691;51.374;-0.176;2024-01-30T03:53:27;0;0;
82667;PMS5003;72691;51.374;-0.176;2024-01-30T03:55:53;1;0;
82667;PMS5003;72691;51.374;-0.176;2024-01-30T03:58:18;1;1;
82667;PMS5003;72691;51.374;-0.176;2024-01-30T04:00:43;0;0;
82667;PMS5003;72691;51.374;-0.176;2024-01-30T04:03:09;0;0;
82667;PMS5003;72691;51.374;-0.176;2024-01-30T04:05:34;0;0;
82667;PMS5003;72691;51.374;-0.176;2024-01-30T04:08:00;1;1;
82667;PMS5003;72691;51.374;-0.176;2024-01-30T04:10:26;1;1;
82667;PMS5003;72691;51.374;-0.176;2024-01-30T04:12:51;0;0;
82667;PMS5003;72691;51.374;-0.176;2024-01-30T04:15:16;1;1;
82667;PMS5003;72691;51.374;-0.176;2024-01-30T04:17:41;1;1;
82667;PMS5003;72691;51.374;-0.176;2024-01-30T04:20:07;0;0;
82667;PMS5003;72691;51.374;-0.176;2024-01-30T04:22:32;2;1;
82667;PMS5003;72691;51.374;-0.176;2024-01-30T04:24:58;1;1;
82667;PMS5003;72691;51.374;-0.176;2024-01-30T04:27:23;1;1;
82667;PMS5003;72691;51.374;-0.176;2024-01-30T04:29:49;3;2;
82667;PMS5003;72691;51.374;-0.176;2024-01-30T04:32:14;1;1;
82667;PMS5003;72691;51.374;-0.176;2024-01-30T04:34:40;1;1;
82667;PMS5003;72691;51.374;-0.176;2024-01-30T04:37:05;4;3;
82667;PMS5003;72691;51.374;-0.176;2024-01-30T04:39:32;3;3;
82667;PMS5003;72691;51.374;-0.176;2024-01-30T04:41:56;3;3;
82667;PMS5003;72691;51.374;-0.176;2024-01-30T04:44:21;1;1;
82667;PMS5003;72691;51.374;-0.176;2024-01-30T04:46:47;3;3;
82667;PMS5003;72691;51.374;-0.176;2024-01-30T04:49:12;1;1;
82667;PMS5003;72691;51.374;-0.176;2024-01-30T04:51:38;3;2;
82667;PMS5003;72691;51.374;-0.176;2024-01-30T04:54:03;2;2;
82667;PMS5003;72691;51.374;-0.176;2024-01-30T04:56:29;2;2;
82667;PMS5003;72691;51.374;-0.176;2024-01-30T04:58:54;3;2;
82667;PMS5003;72691;51.374;-0.176;2024-01-30T05:01:20;2;2;
82667;PMS5003;72691;51.374;-0.176;2024-01-30T05:03:45;2;2;
82667;PMS5003;72691;51.374;-0.176;2024-01-30T05:06:10;1;1;
82667;PMS5003;72691;51.374;-0.176;2024-01-30T05:08:36;3;3;
82667;PMS5003;72691;51.374;-0.176;2024-01-30T05:11:01;2;2;
82667;PMS5003;72691;51.374;-0.176;2024-01-30T05:13:27;2;2;
82667;PMS5003;72691;51.374;-0.176;2024-01-30T05:15:52;2;2;
82667;PMS5003;72691;51.374;-0.176;2024-01-30T05:18:18;2;2;
82667;PMS5003;72691;51.374;-0.176;2024-01-30T05:20:43;2;2;
82667;PMS5003;72691;51.374;-0.176;2024-01-30T05:23:08;2;2;
82667;PMS5003;72691;51.374;-0.176;2024-01-30T05:25:34;3;3;
82667;PMS5003;72691;51.374;-0.176;2024-01-30T05:27:59;3;3;
82667;PMS5003;72691;51.374;-0.176;2024-01-30T05:30:25;2;2;
82667;PMS5003;72691;51.374;-0.176;2024-01-30T05:32:51;2;2;
82667;PMS5003;72691;51.374;-0.176;2024-01-30T05:35:16;1;1;
82667;PMS5003;72691;51.374;-0.176;2024-01-30T05:37:41;1;1;
82667;PMS5003;72691;51.374;-0.176;2024-01-30T05:40:07;1;1;
82667;PMS5003;72691;51.374;-0.176;2024-01-30T05:42:32;2;1;
82667;PMS5003;72691;51.374;-0.176;2024-01-30T05:44:57;1;1;
82667;PMS5003;72691;51.374;-0.176;2024-01-30T05:47:23;0;0;
82667;PMS5003;72691;51.374;-0.176;2024-01-30T05:49:48;1;1;
82667;PMS5003;72691;51.374;-0.176;2024-01-30T05:52:14;1;1;
82667;PMS5003;72691;51.374;-0.176;2024-01-30T05:54:39;0;0;
82667;PMS5003;72691;51.374;-0.176;2024-01-30T05:57:05;1;1;
82667;PMS5003;72691;51.374;-0.176;2024-01-30T05:59:30;1;1;
82667;PMS5003;72691;51.374;-0.176;2024-01-30T06:01:55;1;1;
82667;PMS5003;72691;51.374;-0.176;2024-01-30T06:04:21;2;2;
82667;PMS5003;72691;51.374;-0.176;2024-01-30T06:06:46;1;1;
82667;PMS5003;72691;51.374;-0.176;2024-01-30T06:09:12;3;3;
82667;PMS5003;72691;51.374;-0.176;2024-01-30T06:11:37;1;0;
82667;PMS5003;72691;51.374;-0.176;2024-01-30T06:14:03;0;0;
82667;PMS5003;72691;51.374;-0.176;2024-01-30T06:16:28;1;1;
82667;PMS5003;72691;51.374;-0.176;2024-01-30T06:18:53;2;2;
82667;PMS5003;72691;51.374;-0.176;2024-01-30T06:21:19;2;1;
82667;PMS5003;72691;51.374;-0.176;2024-01-30T06:23:44;2;2;
82667;PMS5003;72691;51.374;-0.176;2024-01-30T06:26:10;1;1;
82667;PMS5003;72691;51.374;-0.176;2024-01-30T06:28:35;1;1;
82667;PMS5003;72691;51.374;-0.176;2024-01-30T06:31:01;2;2;
82667;PMS5003;72691;51.374;-0.176;2024-01-30T06:33:26;2;2;
82667;PMS5003;72691;51.374;-0.176;2024-01-30T06:35:52;3;2;
82667;PMS5003;72691;51.374;-0.176;2024-01-30T06:38:17;2;2;
82667;PMS5003;72691;51.374;-0.176;2024-01-30T06:40:43;3;2;
82667;PMS5003;72691;51.374;-0.176;2024-01-30T06:43:08;3;2;
82667;PMS5003;72691;51.374;-0.176;2024-01-30T06:45:34;2;2;
82667;PMS5003;72691;51.374;-0.176;2024-01-30T06:47:59;3;3;
82667;PMS5003;72691;51.374;-0.176;2024-01-30T06:50:25;4;3;
82667;PMS5003;72691;51.374;-0.176;2024-01-30T06:52:51;3;2;
82667;PMS5003;72691;51.374;-0.176;2024-01-30T06:55:15;6;4;
82667;PMS5003;72691;51.374;-0.176;2024-01-30T06:57:40;4;4;
82667;PMS5003;72691;51.374;-0.176;2024-01-30T07:00:06;4;4;
82667;PMS5003;72691;51.374;-0.176;2024-01-30T07:02:31;4;3;
82667;PMS5003;72691;51.374;-0.176;2024-01-30T07:04:57;4;4;
82667;PMS5003;72691;51.374;-0.176;2024-01-30T07:07:22;7;6;
82667;PMS5003;72691;51.374;-0.176;2024-01-30T07:09:48;4;4;
82667;PMS5003;72691;51.374;-0.176;2024-01-30T07:12:13;6;6;
82667;PMS5003;72691;51.374;-0.176;2024-01-30T07:14:39;7;7;
82667;PMS5003;72691;51.374;-0.176;2024-01-30T07:17:04;6;4;
82667;PMS5003;72691;51.374;-0.176;2024-01-30T07:19:30;4;4;
82667;PMS5003;72691;51.374;-0.176;2024-01-30T07:21:55;6;6;
82667;PMS5003;72691;51.374;-0.176;2024-01-30T07:24:20;4;4;
82667;PMS5003;72691;51.374;-0.176;2024-01-30T07:26:46;7;7;
82667;PMS5003;72691;51.374;-0.176;2024-01-30T07:29:11;6;6;
82667;PMS5003;72691;51.374;-0.176;2024-01-30T07:31:37;8;8;
82667;PMS5003;72691;51.374;-0.176;2024-01-30T07:34:02;6;6;
82667;PMS5003;72691;51.374;-0.176;2024-01-30T07:36:28;7;6;
82667;PMS5003;72691;51.374;-0.176;2024-01-30T07:38:53;6;6;
82667;PMS5003;72691;51.374;-0.176;2024-01-30T07:41:19;6;4;
82667;PMS5003;72691;51.374;-0.176;2024-01-30T07:43:45;4;4;
82667;PMS5003;72691;51.374;-0.176;2024-01-30T07:46:10;4;4;
82667;PMS5003;72691;51.374;-0.176;2024-01-30T07:48:35;8;8;
82667;PMS5003;72691;51.374;-0.176;2024-01-30T07:51:01;8;7;
82667;PMS5003;72691;51.374;-0.176;2024-01-30T07:53:26;6;6;
82667;PMS5003;72691;51.374;-0.176;2024-01-30T07:55:51;6;6;
82667;PMS5003;72691;51.374;-0.176;2024-01-30T07:58:17;3;3;
82667;PMS5003;72691;51.374;-0.176;2024-01-30T08:00:42;7;7;
82667;PMS5003;72691;51.374;-0.176;2024-01-30T08:03:07;3;3;
82667;PMS5003;72691;51.374;-0.176;2024-01-30T08:05:33;6;4;
82667;PMS5003;72691;51.374;-0.176;2024-01-30T08:07:58;6;6;
82667;PMS5003;72691;51.374;-0.176;2024-01-30T08:10:24;3;3;
82667;PMS5003;72691;51.374;-0.176;2024-01-30T08:12:49;3;2;
82667;PMS5003;72691;51.374;-0.176;2024-01-30T08:15:15;4;4;
82667;PMS5003;72691;51.374;-0.176;2024-01-30T08:17:40;4;3;
82667;PMS5003;72691;51.374;-0.176;2024-01-30T08:20:06;3;3;
82667;PMS5003;72691;51.374;-0.176;2024-01-30T08:22:31;4;4;
82667;PMS5003;72691;51.374;-0.176;2024-01-30T08:24:56;4;4;
82667;PMS5003;72691;51.374;-0.176;2024-01-30T08:27:22;4;4;
82667;PMS5003;72691;51.374;-0.176;2024-01-30T08:29:47;2;2;
82667;PMS5003;72691;51.374;-0.176;2024-01-30T08:32:12;2;2;
82667;PMS5003;72691;51.374;-0.176;2024-01-30T08:34:38;2;2;
82667;PMS5003;72691;51.374;-0.176;2024-01-30T08:37:03;2;2;
82667;PMS5003;72691;51.374;-0.176;2024-01-30T08:39:29;1;1;
82667;PMS5003;72691;51.374;-0.176;2024-01-30T08:41:54;2;1;
82667;PMS5003;72691;51.374;-0.176;2024-01-30T08:44:20;0;0;
82667;PMS5003;72691;51.374;-0.176;2024-01-30T08:46:45;9;9;
82667;PMS5003;72691;51.374;-0.176;2024-01-30T08:49:11;6;6;
82667;PMS5003;72691;51.374;-0.176;2024-01-30T08:51:36;1;1;
82667;PMS5003;72691;51.374;-0.176;2024-01-30T08:54:01;2;1;
82667;PMS5003;72691;51.374;-0.176;2024-01-30T08:56:27;1;1;
82667;PMS5003;72691;51.374;-0.176;2024-01-30T08:58:52;1;1;
82667;PMS5003;72691;51.374;-0.176;2024-01-30T09:01:18;0;0;
82667;PMS5003;72691;51.374;-0.176;2024-01-30T09:03:43;1;1;
82667;PMS5003;72691;51.374;-0.176;2024-01-30T09:06:08;1;1;
82667;PMS5003;72691;51.374;-0.176;2024-01-30T09:08:34;1;1;
82667;PMS5003;72691;51.374;-0.176;2024-01-30T09:10:59;1;1;
82667;PMS5003;72691;51.374;-0.176;2024-01-30T09:13:25;1;1;
82667;PMS5003;72691;51.374;-0.176;2024-01-30T09:15:50;0;0;
82667;PMS5003;72691;51.374;-0.176;2024-01-30T09:18:16;0;0;
82667;PMS5003;72691;51.374;-0.176;2024-01-30T09:20:41;1;1;
82667;PMS5003;72691;51.374;-0.176;2024-01-30T09:23:06;1;1;
82667;PMS5003;72691;51.374;-0.176;2024-01-30T09:25:32;2;1;
82667;PMS5003;72691;51.374;-0.176;2024-01-30T09:27:58;1;1;
82667;PMS5003;72691;51.374;-0.176;2024-01-30T09:30:23;1;1;
82667;PMS5003;72691;51.374;-0.176;2024-01-30T09:32:48;3;2;
82667;PMS5003;72691;51.374;-0.176;2024-01-30T09:35:14;1;1;
82667;PMS5003;72691;51.374;-0.176;2024-01-30T09:37:39;1;1;
82667;PMS5003;72691;51.374;-0.176;2024-01-30T09:40:05;1;1;
82667;PMS5003;72691;51.374;-0.176;2024-01-30T09:42:33;1;1;
82667;PMS5003;72691;51.374;-0.176;2024-01-30T09:44:55;1;1;
82667;PMS5003;72691;51.374;-0.176;2024-01-30T09:47:21;1;1;
82667;PMS5003;72691;51.374;-0.176;2024-01-30T09:49:46;0;0;
82667;PMS5003;72691;51.374;-0.176;2024-01-30T09:52:12;0;0;
82667;PMS5003;72691;51.374;-0.176;2024-01-30T09:54:38;0;0;
82667;PMS5003;72691;51.374;-0.176;2024-01-30T09:57:03;0;0;
82667;PMS5003;72691;51.374;-0.176;2024-01-30T09:59:28;1;1;
82667;PMS5003;72691;51.374;-0.176;2024-01-30T10:01:53;0;0;
82667;PMS5003;72691;51.374;-0.176;2024-01-30T10:04:19;1;1;
82667;PMS5003;72691;51.374;-0.176;2024-01-30T10:06:44;1;1;
82667;PMS5003;72691;51.374;-0.176;2024-01-30T10:09:10;0;0;
82667;PMS5003;72691;51.374;-0.176;2024-01-30T10:11:35;1;1;
82667;PMS5003;72691;51.374;-0.176;2024-01-30T10:14:01;2;1;
82667;PMS5003;72691;51.374;-0.176;2024-01-30T10:16:26;0;0;
82667;PMS5003;72691;51.374;-0.176;2024-01-30T10:18:51;0;0;
82667;PMS5003;72691;51.374;-0.176;2024-01-30T10:21:17;0;0;
82667;PMS5003;72691;51.374;-0.176;2024-01-30T10:23:43;2;2;
82667;PMS5003;72691;51.374;-0.176;2024-01-30T10:26:08;5;4;
82667;PMS5003;72691;51.374;-0.176;2024-01-30T10:28:33;5;5;
82667;PMS5003;72691;51.374;-0.176;2024-01-30T10:30:59;2;2;
82667;PMS5003;72691;51.374;-0.176;2024-01-30T10:33:24;1;1;
82667;PMS5003;72691;51.374;-0.176;2024-01-30T10:35:50;2;2;
82667;PMS5003;72691;51.374;-0.176;2024-01-30T10:38:15;1;1;
82667;PMS5003;72691;51.374;-0.176;2024-01-30T10:40:40;0;0;
82667;PMS5003;72691;51.374;-0.176;2024-01-30T10:43:06;0;0;
82667;PMS5003;72691;51.374;-0.176;2024-01-30T10:45:31;1;1;
82667;PMS5003;72691;51.374;-0.176;2024-01-30T10:47:57;1;1;
82667;PMS5003;72691;51.374;-0.176;2024-01-30T10:50:22;1;1;
82667;PMS5003;72691;51.374;-0.176;2024-01-30T10:52:48;1;1;
82667;PMS5003;72691;51.374;-0.176;2024-01-30T10:55:13;1;1;
82667;PMS5003;72691;51.374;-0.176;2024-01-30T10:57:39;1;0;
82667;PMS5003;72691;51.374;-0.176;2024-01-30T11:00:05;1;1;
82667;PMS5003;72691;51.374;-0.176;2024-01-30T11:02:29;0;0;
82667;PMS5003;72691;51.374;-0.176;2024-01-30T11:04:55;1;1;
82667;PMS5003;72691;51.374;-0.176;2024-01-30T11:07:24;1;1;
82667;PMS5003;72691;51.374;-0.176;2024-01-30T11:09:49;0;0;
82667;PMS5003;72691;51.374;-0.176;2024-01-30T11:12:12;0;0;
82667;PMS5003;72691;51.374;-0.176;2024-01-30T11:14:37;0;0;
82667;PMS5003;72691;51.374;-0.176;2024-01-30T11:17:02;0;0;
82667;PMS5003;72691;51.374;-0.176;2024-01-30T11:19:30;1;1;
82667;PMS5003;72691;51.374;-0.176;2024-01-30T11:21:53;1;1;
82667;PMS5003;72691;51.374;-0.176;2024-01-30T11:24:19;1;1;
82667;PMS5003;72691;51.374;-0.176;2024-01-30T11:26:44;1;1;
82667;PMS5003;72691;51.374;-0.176;2024-01-30T11:29:09;2;2;
82667;PMS5003;72691;51.374;-0.176;2024-01-30T11:31:35;0;0;
82667;PMS5003;72691;51.374;-0.176;2024-01-30T11:34:00;1;1;
82667;PMS5003;72691;51.374;-0.176;2024-01-30T11:36:26;0;0;
82667;PMS5003;72691;51.374;-0.176;2024-01-30T11:38:51;0;0;
82667;PMS5003;72691;51.374;-0.176;2024-01-30T11:41:17;1;1;
82667;PMS5003;72691;51.374;-0.176;2024-01-30T11:43:42;0;0;
82667;PMS5003;72691;51.374;-0.176;2024-01-30T11:46:07;1;1;
82667;PMS5003;72691;51.374;-0.176;2024-01-30T11:48:33;1;1;
82667;PMS5003;72691;51.374;-0.176;2024-01-30T11:50:58;1;1;
82667;PMS5003;72691;51.374;-0.176;2024-01-30T11:53:24;1;1;
82667;PMS5003;72691;51.374;-0.176;2024-01-30T11:55:49;1;1;
82667;PMS5003;72691;51.374;-0.176;2024-01-30T11:58:15;0;0;
82667;PMS5003;72691;51.374;-0.176;2024-01-30T12:00:40;1;1;
82667;PMS5003;72691;51.374;-0.176;2024-01-30T12:03:06;1;1;
82667;PMS5003;72691;51.374;-0.176;2024-01-30T12:05:31;2;1;
82667;PMS5003;72691;51.374;-0.176;2024-01-30T12:07:56;1;1;
82667;PMS5003;72691;51.374;-0.176;2024-01-30T12:10:22;1;1;
82667;PMS5003;72691;51.374;-0.176;2024-01-30T12:12:48;1;1;
82667;PMS5003;72691;51.374;-0.176;2024-01-30T12:15:13;2;2;
82667;PMS5003;72691;51.374;-0.176;2024-01-30T12:17:38;2;2;
82667;PMS5003;72691;51.374;-0.176;2024-01-30T12:20:04;0;0;
82667;PMS5003;72691;51.374;-0.176;2024-01-30T12:22:29;0;0;
82667;PMS5003;72691;51.374;-0.176;2024-01-30T12:24:54;2;1;
82667;PMS5003;72691;51.374;-0.176;2024-01-30T12:27:20;1;0;
82667;PMS5003;72691;51.374;-0.176;2024-01-30T12:29:45;1;1;
82667;PMS5003;72691;51.374;-0.176;2024-01-30T12:32:14;2;2;
82667;PMS5003;72691;51.374;-0.176;2024-01-30T12:34:40;2;2;
82667;PMS5003;72691;51.374;-0.176;2024-01-30T12:37:02;1;1;
82667;PMS5003;72691;51.374;-0.176;2024-01-30T12:39:27;1;1;
82667;PMS5003;72691;51.374;-0.176;2024-01-30T12:41:53;1;1;
82667;PMS5003;72691;51.374;-0.176;2024-01-30T12:44:18;4;4;
82667;PMS5003;72691;51.374;-0.176;2024-01-30T12:46:43;1;1;
82667;PMS5003;72691;51.374;-0.176;2024-01-30T12:49:09;1;1;
82667;PMS5003;72691;51.374;-0.176;2024-01-30T12:51:34;1;1;
82667;PMS5003;72691;51.374;-0.176;2024-01-30T12:54:03;2;1;
82667;PMS5003;72691;51.374;-0.176;2024-01-30T12:56:25;1;1;
82667;PMS5003;72691;51.374;-0.176;2024-01-30T12:58:50;1;1;
82667;PMS5003;72691;51.374;-0.176;2024-01-30T13:01:16;0;0;
82667;PMS5003;72691;51.374;-0.176;2024-01-30T13:03:42;0;0;
82667;PMS5003;72691;51.374;-0.176;2024-01-30T13:06:07;1;1;
82667;PMS5003;72691;51.374;-0.176;2024-01-30T13:08:32;1;1;
82667;PMS5003;72691;51.374;-0.176;2024-01-30T13:10:58;0;0;
82667;PMS5003;72691;51.374;-0.176;2024-01-30T13:13:23;0;0;
82667;PMS5003;72691;51.374;-0.176;2024-01-30T13:15:49;1;1;
82667;PMS5003;72691;51.374;-0.176;2024-01-30T13:18:14;2;1;
82667;PMS5003;72691;51.374;-0.176;2024-01-30T13:20:39;0;0;
82667;PMS5003;72691;51.374;-0.176;2024-01-30T13:23:05;1;1;
82667;PMS5003;72691;51.374;-0.176;2024-01-30T13:25:30;1;1;
82667;PMS5003;72691;51.374;-0.176;2024-01-30T13:27:56;1;1;
82667;PMS5003;72691;51.374;-0.176;2024-01-30T13:30:21;1;1;
82667;PMS5003;72691;51.374;-0.176;2024-01-30T13:32:47;1;1;
82667;PMS5003;72691;51.374;-0.176;2024-01-30T13:35:12;1;1;
82667;PMS5003;72691;51.374;-0.176;2024-01-30T13:37:38;0;0;
82667;PMS5003;72691;51.374;-0.176;2024-01-30T13:40:04;1;1;
82667;PMS5003;72691;51.374;-0.176;2024-01-30T13:42:28;1;1;
82667;PMS5003;72691;51.374;-0.176;2024-01-30T13:44:54;1;1;
82667;PMS5003;72691;51.374;-0.176;2024-01-30T13:47:19;1;1;
82667;PMS5003;72691;51.374;-0.176;2024-01-30T13:49:45;1;1;
82667;PMS5003;72691;51.374;-0.176;2024-01-30T13:52:10;1;1;
82667;PMS5003;72691;51.374;-0.176;2024-01-30T13:54:36;2;1;
82667;PMS5003;72691;51.374;-0.176;2024-01-30T13:57:01;2;2;
82667;PMS5003;72691;51.374;-0.176;2024-01-30T13:59:27;1;1;
82667;PMS5003;72691;51.374;-0.176;2024-01-30T14:01:52;1;1;
82667;PMS5003;72691;51.374;-0.176;2024-01-30T14:04:17;2;2;
82667;PMS5003;72691;51.374;-0.176;2024-01-30T14:06:43;1;1;
82667;PMS5003;72691;51.374;-0.176;2024-01-30T14:09:08;1;1;
82667;PMS5003;72691;51.374;-0.176;2024-01-30T14:11:34;1;1;
82667;PMS5003;72691;51.374;-0.176;2024-01-30T14:13:59;1;1;
82667;PMS5003;72691;51.374;-0.176;2024-01-30T14:16:25;0;0;
82667;PMS5003;72691;51.374;-0.176;2024-01-30T14:18:50;1;1;
82667;PMS5003;72691;51.374;-0.176;2024-01-30T14:21:15;1;1;
82667;PMS5003;72691;51.374;-0.176;2024-01-30T14:23:41;2;1;
82667;PMS5003;72691;51.374;-0.176;2024-01-30T14:26:06;1;1;
82667;PMS5003;72691;51.374;-0.176;2024-01-30T14:28:32;1;1;
82667;PMS5003;72691;51.374;-0.176;2024-01-30T14:30:57;1;1;
82667;PMS5003;72691;51.374;-0.176;2024-01-30T14:33:23;2;2;
82667;PMS5003;72691;51.374;-0.176;2024-01-30T14:35:48;1;1;
82667;PMS5003;72691;51.374;-0.176;2024-01-30T14:38:14;2;2;
82667;PMS5003;72691;51.374;-0.176;2024-01-30T14:40:39;1;1;
82667;PMS5003;72691;51.374;-0.176;2024-01-30T14:43:05;1;1;
82667;PMS5003;72691;51.374;-0.176;2024-01-30T14:45:30;0;0;
82667;PMS5003;72691;51.374;-0.176;2024-01-30T14:47:55;1;1;
82667;PMS5003;72691;51.374;-0.176;2024-01-30T14:50:21;2;2;
82667;PMS5003;72691;51.374;-0.176;2024-01-30T14:52:46;0;0;
82667;PMS5003;72691;51.374;-0.176;2024-01-30T14:55:12;2;2;
82667;PMS5003;72691;51.374;-0.176;2024-01-30T14:57:37;1;1;
82667;PMS5003;72691;51.374;-0.176;2024-01-30T15:00:03;1;1;
82667;PMS5003;72691;51.374;-0.176;2024-01-30T15:02:28;1;1;
82667;PMS5003;72691;51.374;-0.176;2024-01-30T15:04:54;2;2;
82667;PMS5003;72691;51.374;-0.176;2024-01-30T15:07:19;3;2;
82667;PMS5003;72691;51.374;-0.176;2024-01-30T15:09:45;3;3;
82667;PMS5003;72691;51.374;-0.176;2024-01-30T15:12:10;2;2;
82667;PMS5003;72691;51.374;-0.176;2024-01-30T15:14:35;3;3;
82667;PMS5003;72691;51.374;-0.176;2024-01-30T15:17:01;2;2;
82667;PMS5003;72691;51.374;-0.176;2024-01-30T15:19:26;4;3;
82667;PMS5003;72691;51.374;-0.176;2024-01-30T15:21:52;2;2;
82667;PMS5003;72691;51.374;-0.176;2024-01-30T15:24:17;1;1;
82667;PMS5003;72691;51.374;-0.176;2024-01-30T15:26:43;2;2;
82667;PMS5003;72691;51.374;-0.176;2024-01-30T15:29:08;1;1;
82667;PMS5003;72691;51.374;-0.176;2024-01-30T15:31:33;2;2;
82667;PMS5003;72691;51.374;-0.176;2024-01-30T15:33:59;2;2;
82667;PMS5003;72691;51.374;-0.176;2024-01-30T15:36:24;1;1;
82667;PMS5003;72691;51.374;-0.176;2024-01-30T15:38:50;1;1;
82667;PMS5003;72691;51.374;-0.176;2024-01-30T15:41:15;1;1;
82667;PMS5003;72691;51.374;-0.176;2024-01-30T15:43:41;1;1;
82667;PMS5003;72691;51.374;-0.176;2024-01-30T15:46:06;1;1;
82667;PMS5003;72691;51.374;-0.176;2024-01-30T15:48:32;1;1;
82667;PMS5003;72691;51.374;-0.176;2024-01-30T15:50:57;2;2;
82667;PMS5003;72691;51.374;-0.176;2024-01-30T15:53:23;2;2;
82667;PMS5003;72691;51.374;-0.176;2024-01-30T15:55:48;2;2;
82667;PMS5003;72691;51.374;-0.176;2024-01-30T15:58:13;3;2;
82667;PMS5003;72691;51.374;-0.176;2024-01-30T16:00:40;2;2;
82667;PMS5003;72691;51.374;-0.176;2024-01-30T16:03:04;3;3;
82667;PMS5003;72691;51.374;-0.176;2024-01-30T16:05:30;1;1;
82667;PMS5003;72691;51.374;-0.176;2024-01-30T16:07:55;2;2;
82667;PMS5003;72691;51.374;-0.176;2024-01-30T16:10:20;2;2;
82667;PMS5003;72691;51.374;-0.176;2024-01-30T16:12:46;2;2;
82667;PMS5003;72691;51.374;-0.176;2024-01-30T16:15:12;2;2;
82667;PMS5003;72691;51.374;-0.176;2024-01-30T16:17:37;2;2;